createdAt,value
2018-01-27T00:00:23.795Z,14.48
2018-01-27T00:00:55.442Z,16.62
2018-01-27T00:01:27.073Z,18.95
2018-01-27T00:01:58.686Z,12.43
2018-01-27T00:02:30.339Z,16.87
2018-01-27T00:03:01.950Z,14.38
2018-01-27T00:03:33.577Z,14.70
2018-01-27T00:04:05.227Z,14.60
2018-01-27T00:04:36.851Z,14.25
2018-01-27T00:05:08.477Z,15.95
2018-01-27T00:05:40.103Z,15.48
2018-01-27T00:06:11.709Z,15.75
2018-01-27T00:06:43.313Z,15.70
2018-01-27T00:07:14.942Z,15.20
2018-01-27T00:07:46.590Z,16.10
2018-01-27T00:08:18.207Z,14.02
2018-01-27T00:08:49.839Z,15.60
2018-01-27T00:09:21.503Z,17.42
2018-01-27T00:09:53.110Z,17.77
2018-01-27T00:10:24.743Z,15.73
2018-01-27T00:10:58.151Z,18.25
2018-01-27T00:11:29.799Z,16.62
2018-01-27T00:12:01.521Z,18.83
2018-01-27T00:12:33.171Z,14.95
2018-01-27T00:13:04.807Z,16.62
2018-01-27T00:13:36.427Z,20.65
2018-01-27T00:14:08.121Z,16.37
2018-01-27T00:14:39.773Z,14.38
2018-01-27T00:15:11.435Z,17.62
2018-01-27T00:15:43.113Z,20.08
2018-01-27T00:16:14.779Z,16.00
2018-01-27T00:16:46.383Z,19.35
2018-01-27T00:17:18.030Z,15.75
2018-01-27T00:17:49.664Z,20.58
2018-01-27T00:18:21.294Z,19.30
2018-01-27T00:18:52.917Z,15.98
2018-01-27T00:19:24.523Z,20.02
2018-01-27T00:19:56.178Z,15.57
2018-01-27T00:20:27.839Z,13.68
2018-01-27T00:20:59.487Z,16.00
2018-01-27T00:21:31.109Z,15.68
2018-01-27T00:22:02.739Z,16.50
2018-01-27T00:22:50.894Z,16.30
2018-01-27T00:23:22.513Z,13.85
2018-01-27T00:23:54.125Z,15.45
2018-01-27T00:24:25.783Z,15.70
2018-01-27T00:24:57.388Z,14.70
2018-01-27T00:25:29.035Z,14.02
2018-01-27T00:26:00.678Z,15.95
2018-01-27T00:26:32.341Z,15.55
2018-01-27T00:27:03.977Z,15.40
2018-01-27T00:27:35.626Z,17.25
2018-01-27T00:28:07.243Z,14.95
2018-01-27T00:28:38.872Z,14.57
2018-01-27T00:29:10.497Z,16.85
2018-01-27T00:29:42.105Z,18.67
2018-01-27T00:30:13.721Z,19.92
2018-01-27T00:30:45.355Z,17.55
2018-01-27T00:31:16.993Z,18.05
2018-01-27T00:31:48.619Z,15.38
2018-01-27T00:32:20.233Z,15.70
2018-01-27T00:32:51.863Z,15.13
2018-01-27T00:33:23.481Z,16.77
2018-01-27T00:33:55.122Z,14.18
2018-01-27T00:34:26.729Z,18.50
2018-01-27T00:34:58.371Z,15.45
2018-01-27T00:35:29.987Z,18.48
2018-01-27T00:36:01.609Z,14.95
2018-01-27T00:36:33.229Z,17.52
2018-01-27T00:37:04.857Z,15.20
2018-01-27T00:37:36.485Z,20.00
2018-01-27T00:38:08.117Z,17.15
2018-01-27T00:38:39.721Z,16.73
2018-01-27T00:39:11.331Z,17.55
2018-01-27T00:39:42.955Z,16.55
2018-01-27T00:40:14.606Z,20.33
2018-01-27T00:40:46.227Z,19.45
2018-01-27T00:41:17.845Z,19.73
2018-01-27T00:41:49.481Z,17.42
2018-01-27T00:42:21.079Z,17.58
2018-01-27T00:42:52.687Z,21.35
2018-01-27T00:43:24.306Z,14.93
2018-01-27T00:43:55.921Z,15.15
2018-01-27T00:44:27.559Z,19.60
2018-01-27T00:44:59.197Z,17.60
2018-01-27T00:45:30.827Z,16.67
2018-01-27T00:46:02.454Z,21.25
2018-01-27T00:46:34.083Z,21.33
2018-01-27T00:47:05.687Z,17.62
2018-01-27T00:47:37.303Z,18.75
2018-01-27T00:48:08.929Z,16.55
2018-01-27T00:48:40.591Z,18.83
2018-01-27T00:49:12.193Z,16.62
2018-01-27T00:49:43.793Z,19.15
2018-01-27T00:50:15.409Z,16.48
2018-01-27T00:50:47.030Z,17.65
2018-01-27T00:51:18.675Z,18.35
2018-01-27T00:51:50.317Z,18.20
2018-01-27T00:52:21.961Z,14.25
2018-01-27T00:52:53.579Z,19.92
2018-01-27T00:53:25.190Z,16.92
2018-01-27T00:53:56.797Z,16.80
2018-01-27T00:54:28.417Z,21.15
2018-01-27T00:55:00.048Z,19.15
2018-01-27T00:55:31.675Z,14.60
2018-01-27T00:56:03.323Z,15.20
2018-01-27T00:56:34.945Z,20.67
2018-01-27T00:57:06.559Z,17.37
2018-01-27T00:57:38.205Z,14.70
2018-01-27T00:58:09.883Z,20.30
2018-01-27T00:58:41.535Z,17.37
2018-01-27T00:59:13.160Z,16.23
2018-01-27T00:59:44.777Z,17.87
2018-01-27T01:00:16.385Z,17.05
2018-01-27T01:00:48.015Z,17.27
2018-01-27T01:01:19.633Z,16.00
2018-01-27T01:01:51.257Z,16.67
2018-01-27T01:02:22.891Z,20.83
2018-01-27T01:02:54.533Z,15.27
2018-01-27T01:03:26.155Z,18.52
2018-01-27T01:03:57.785Z,13.20
2018-01-27T01:04:29.417Z,17.30
2018-01-27T01:05:01.041Z,14.20
2018-01-27T01:05:32.702Z,16.80
2018-01-27T01:06:04.315Z,15.15
2018-01-27T01:06:35.983Z,19.58
2018-01-27T01:07:07.617Z,15.63
2018-01-27T01:07:39.231Z,17.23
2018-01-27T01:08:10.887Z,16.12
2018-01-27T01:08:42.509Z,17.48
2018-01-27T01:09:14.141Z,13.73
2018-01-27T01:09:45.779Z,20.20
2018-01-27T01:10:17.420Z,22.75
2018-01-27T01:10:49.081Z,15.30
2018-01-27T01:11:20.719Z,15.75
2018-01-27T01:11:52.335Z,18.48
2018-01-27T01:12:23.944Z,14.00
2018-01-27T01:12:55.613Z,18.73
2018-01-27T01:13:27.262Z,16.08
2018-01-27T01:13:58.889Z,17.98
2018-01-27T01:14:30.513Z,17.37
2018-01-27T01:15:02.195Z,17.42
2018-01-27T01:15:33.803Z,16.67
2018-01-27T01:16:05.436Z,15.10
2018-01-27T01:16:37.105Z,18.42
2018-01-27T01:17:08.725Z,13.07
2018-01-27T01:17:40.345Z,13.73
2018-01-27T01:18:11.975Z,14.23
2018-01-27T01:18:43.637Z,13.68
2018-01-27T01:19:15.239Z,14.40
2018-01-27T01:19:46.863Z,19.83
2018-01-27T01:20:18.496Z,15.20
2018-01-27T01:20:50.161Z,12.88
2018-01-27T01:21:21.789Z,14.30
2018-01-27T01:21:53.405Z,16.00
2018-01-27T01:22:25.023Z,13.80
2018-01-27T01:22:56.627Z,13.35
2018-01-27T01:23:28.216Z,15.07
2018-01-27T01:23:59.871Z,14.93
2018-01-27T01:24:31.493Z,18.12
2018-01-27T01:25:03.129Z,17.30
2018-01-27T01:25:34.737Z,15.40
2018-01-27T01:26:06.415Z,16.80
2018-01-27T01:26:38.049Z,18.17
2018-01-27T01:27:09.673Z,14.50
2018-01-27T01:27:41.297Z,14.65
2018-01-27T01:28:12.919Z,14.00
2018-01-27T01:28:44.541Z,14.05
2018-01-27T01:29:16.163Z,15.98
2018-01-27T01:29:47.787Z,16.37
2018-01-27T01:30:19.419Z,16.05
2018-01-27T01:30:51.041Z,17.55
2018-01-27T01:31:22.664Z,15.98
2018-01-27T01:31:54.338Z,15.18
2018-01-27T01:32:25.945Z,16.02
2018-01-27T01:32:57.549Z,19.10
2018-01-27T01:33:29.168Z,15.90
2018-01-27T01:34:00.784Z,18.15
2018-01-27T01:34:32.409Z,14.87
2018-01-27T01:35:04.029Z,14.93
2018-01-27T01:35:35.654Z,19.37
2018-01-27T01:36:07.275Z,16.87
2018-01-27T01:36:38.901Z,15.20
2018-01-27T01:37:10.527Z,17.77
2018-01-27T01:37:42.149Z,13.13
2018-01-27T01:38:13.841Z,22.23
2018-01-27T01:38:45.475Z,14.13
2018-01-27T01:39:17.093Z,12.20
2018-01-27T01:39:48.738Z,16.08
2018-01-27T01:40:20.359Z,16.85
2018-01-27T01:40:52.013Z,14.95
2018-01-27T01:41:23.686Z,13.68
2018-01-27T01:41:55.319Z,14.93
2018-01-27T01:42:33.049Z,14.40
2018-01-27T01:43:10.917Z,15.85
2018-01-27T01:43:48.671Z,16.58
2018-01-27T01:44:26.569Z,18.17
2018-01-27T01:44:58.231Z,16.35
2018-01-27T01:45:29.840Z,14.87
2018-01-27T01:46:01.461Z,19.73
2018-01-27T01:46:33.089Z,14.98
2018-01-27T01:47:04.707Z,17.25
2018-01-27T01:47:36.333Z,15.56
2018-01-27T01:48:07.955Z,16.73
2018-01-27T01:48:39.578Z,17.70
2018-01-27T01:49:23.416Z,15.55
2018-01-27T01:49:55.079Z,17.95
2018-01-27T01:50:26.725Z,20.58
2018-01-27T01:50:58.335Z,13.02
2018-01-27T01:51:30.009Z,16.25
2018-01-27T01:52:01.656Z,14.63
2018-01-27T01:52:33.273Z,14.77
2018-01-27T01:53:04.944Z,15.35
2018-01-27T01:53:36.575Z,16.12
2018-01-27T01:54:08.219Z,12.15
2018-01-27T01:54:39.823Z,15.93
2018-01-27T01:55:11.461Z,18.60
2018-01-27T01:55:43.121Z,16.65
2018-01-27T01:56:14.739Z,13.25
2018-01-27T01:56:46.364Z,15.27
2018-01-27T01:57:17.997Z,13.25
2018-01-27T01:57:49.616Z,20.08
2018-01-27T01:58:21.353Z,15.35
2018-01-27T01:58:52.971Z,15.60
2018-01-27T01:59:24.625Z,19.20
2018-01-27T01:59:56.234Z,15.32
2018-01-27T02:00:27.839Z,15.60
2018-01-27T02:00:59.540Z,16.05
2018-01-27T02:01:31.165Z,14.20
2018-01-27T02:02:02.825Z,15.13
2018-01-27T02:02:34.467Z,18.50
2018-01-27T02:03:06.093Z,15.85
2018-01-27T02:03:37.723Z,13.40
2018-01-27T02:04:09.327Z,15.95
2018-01-27T02:04:40.941Z,13.07
2018-01-27T02:05:12.573Z,17.25
2018-01-27T02:05:44.219Z,13.88
2018-01-27T02:06:15.873Z,17.50
2018-01-27T02:06:47.515Z,17.17
2018-01-27T02:07:19.135Z,13.80
2018-01-27T02:07:50.771Z,14.23
2018-01-27T02:08:22.381Z,16.20
2018-01-27T02:08:54.030Z,16.33
2018-01-27T02:09:25.658Z,14.98
2018-01-27T02:09:57.298Z,15.43
2018-01-27T02:10:28.921Z,21.52
2018-01-27T02:11:00.590Z,19.70
2018-01-27T02:11:32.197Z,21.98
2018-01-27T02:12:03.867Z,13.60
2018-01-27T02:12:35.507Z,14.87
2018-01-27T02:13:07.107Z,17.83
2018-01-27T02:13:38.725Z,14.50
2018-01-27T02:14:10.343Z,16.25
2018-01-27T02:14:41.961Z,17.95
2018-01-27T02:15:13.573Z,13.52
2018-01-27T02:15:45.209Z,16.27
2018-01-27T02:16:16.835Z,14.43
2018-01-27T02:16:48.467Z,18.17
2018-01-27T02:17:20.094Z,15.57
2018-01-27T02:17:51.721Z,17.90
2018-01-27T02:18:23.357Z,14.38
2018-01-27T02:18:54.974Z,14.38
2018-01-27T02:19:26.618Z,18.17
2018-01-27T02:19:58.265Z,17.05
2018-01-27T02:20:29.884Z,15.18
2018-01-27T02:21:01.503Z,17.95
2018-01-27T02:21:33.121Z,17.90
2018-01-27T02:22:04.811Z,14.10
2018-01-27T02:22:36.430Z,17.30
2018-01-27T02:23:08.051Z,15.85
2018-01-27T02:23:40.731Z,14.48
2018-01-27T02:24:12.364Z,14.52
2018-01-27T02:24:44.003Z,15.10
2018-01-27T02:25:15.607Z,16.40
2018-01-27T02:25:47.242Z,14.70
2018-01-27T02:26:18.865Z,17.17
2018-01-27T02:26:50.553Z,12.90
2018-01-27T02:27:22.183Z,14.18
2018-01-27T02:27:53.791Z,16.52
2018-01-27T02:28:25.445Z,16.80
2018-01-27T02:28:57.065Z,15.63
2018-01-27T02:29:28.683Z,16.80
2018-01-27T02:30:00.295Z,15.10
2018-01-27T02:30:31.937Z,14.52
2018-01-27T02:31:03.591Z,14.20
2018-01-27T02:31:35.249Z,14.50
2018-01-27T02:32:06.857Z,14.98
2018-01-27T02:32:38.501Z,15.48
2018-01-27T02:33:10.123Z,15.20
2018-01-27T02:33:41.769Z,14.82
2018-01-27T02:34:13.399Z,14.38
2018-01-27T02:34:45.011Z,19.48
2018-01-27T02:35:16.626Z,16.15
2018-01-27T02:35:48.229Z,16.62
2018-01-27T02:36:19.872Z,15.27
2018-01-27T02:36:51.505Z,15.55
2018-01-27T02:37:23.127Z,16.60
2018-01-27T02:37:54.743Z,19.77
2018-01-27T02:38:26.365Z,14.45
2018-01-27T02:38:57.979Z,14.85
2018-01-27T02:39:29.613Z,19.45
2018-01-27T02:40:01.242Z,17.50
2018-01-27T02:40:32.866Z,14.45
2018-01-27T02:41:04.521Z,15.95
2018-01-27T02:41:36.183Z,18.62
2018-01-27T02:42:07.804Z,19.05
2018-01-27T02:42:39.439Z,17.00
2018-01-27T02:43:11.143Z,19.40
2018-01-27T02:43:42.732Z,19.23
2018-01-27T02:44:14.385Z,15.63
2018-01-27T02:44:46.024Z,18.42
2018-01-27T02:45:17.645Z,17.80
2018-01-27T02:45:49.341Z,17.73
2018-01-27T02:46:20.985Z,19.40
2018-01-27T02:46:52.601Z,15.82
2018-01-27T02:47:24.233Z,17.83
2018-01-27T02:47:55.874Z,17.83
2018-01-27T02:48:27.497Z,15.85
2018-01-27T02:48:59.112Z,16.20
2018-01-27T02:49:30.755Z,20.48
2018-01-27T02:50:02.411Z,14.77
2018-01-27T02:50:34.039Z,17.42
2018-01-27T02:51:05.676Z,17.10
2018-01-27T02:51:37.300Z,17.35
2018-01-27T02:52:08.919Z,16.35
2018-01-27T02:52:40.541Z,16.05
2018-01-27T02:53:12.205Z,16.87
2018-01-27T02:53:43.849Z,15.70
2018-01-27T02:54:15.486Z,14.40
2018-01-27T02:54:47.121Z,15.55
2018-01-27T02:55:18.725Z,16.20
2018-01-27T02:55:50.368Z,15.85
2018-01-27T02:56:21.985Z,12.98
2018-01-27T02:56:53.595Z,16.12
2018-01-27T02:57:25.241Z,15.45
2018-01-27T02:57:56.893Z,15.80
2018-01-27T02:58:28.525Z,13.60
2018-01-27T02:59:00.204Z,15.88
2018-01-27T02:59:31.831Z,16.92
2018-01-27T03:00:03.493Z,16.33
2018-01-27T03:00:35.133Z,15.82
2018-01-27T03:01:06.749Z,15.88
2018-01-27T03:01:38.375Z,16.58
2018-01-27T03:02:09.971Z,13.68
2018-01-27T03:02:41.583Z,19.55
2018-01-27T03:03:13.213Z,16.48
2018-01-27T03:03:44.854Z,16.98
2018-01-27T03:04:16.495Z,17.23
2018-01-27T03:04:48.127Z,17.65
2018-01-27T03:05:19.772Z,17.85
2018-01-27T03:05:51.393Z,17.00
2018-01-27T03:06:23.051Z,19.02
2018-01-27T03:06:54.681Z,19.33
2018-01-27T03:07:26.325Z,20.27
2018-01-27T03:07:57.963Z,19.33
2018-01-27T03:08:29.617Z,17.48
2018-01-27T03:09:01.277Z,21.95
2018-01-27T03:09:32.922Z,19.40
2018-01-27T03:10:04.581Z,20.62
2018-01-27T03:10:36.202Z,22.62
2018-01-27T03:11:07.849Z,19.60
2018-01-27T03:11:39.466Z,24.67
2018-01-27T03:12:11.115Z,26.02
2018-01-27T03:12:42.728Z,23.30
2018-01-27T03:13:14.353Z,25.27
2018-01-27T03:13:46.009Z,21.08
2018-01-27T03:14:17.651Z,27.87
2018-01-27T03:14:49.315Z,26.83
2018-01-27T03:15:20.933Z,22.40
2018-01-27T03:15:52.559Z,19.15
2018-01-27T03:16:24.160Z,22.02
2018-01-27T03:16:55.812Z,23.27
2018-01-27T03:17:27.451Z,20.27
2018-01-27T03:17:59.079Z,17.95
2018-01-27T03:18:30.709Z,19.60
2018-01-27T03:19:02.339Z,18.23
2018-01-27T03:19:33.959Z,20.73
2018-01-27T03:20:05.603Z,18.17
2018-01-27T03:20:37.240Z,16.05
2018-01-27T03:21:08.861Z,19.62
2018-01-27T03:21:40.491Z,20.05
2018-01-27T03:22:12.109Z,22.83
2018-01-27T03:22:43.733Z,17.77
2018-01-27T03:23:15.353Z,19.35
2018-01-27T03:23:46.977Z,19.60
2018-01-27T03:24:18.585Z,20.02
2018-01-27T03:24:50.209Z,18.95
2018-01-27T03:25:21.845Z,18.98
2018-01-27T03:25:53.487Z,18.75
2018-01-27T03:26:25.135Z,20.33
2018-01-27T03:26:56.764Z,19.15
2018-01-27T03:27:28.379Z,16.98
2018-01-27T03:28:00.028Z,16.62
2018-01-27T03:28:31.695Z,20.42
2018-01-27T03:29:03.379Z,21.12
2018-01-27T03:29:34.982Z,17.50
2018-01-27T03:30:06.619Z,21.42
2018-01-27T03:30:38.259Z,19.60
2018-01-27T03:31:09.949Z,24.35
2018-01-27T03:31:41.563Z,19.37
2018-01-27T03:32:13.197Z,17.80
2018-01-27T03:32:44.827Z,17.92
2018-01-27T03:33:16.497Z,18.55
2018-01-27T03:33:48.134Z,21.27
2018-01-27T03:34:19.776Z,21.40
2018-01-27T03:34:51.392Z,16.15
2018-01-27T03:35:23.013Z,20.92
2018-01-27T03:36:44.302Z,14.70
2018-01-27T03:37:15.928Z,17.42
2018-01-27T03:37:47.551Z,20.10
2018-01-27T03:38:19.165Z,17.58
2018-01-27T03:38:50.773Z,17.75
2018-01-27T03:39:22.443Z,20.73
2018-01-27T03:39:54.075Z,21.87
2018-01-27T03:40:25.751Z,16.98
2018-01-27T03:40:57.377Z,16.90
2018-01-27T03:41:29.009Z,16.20
2018-01-27T03:42:00.622Z,18.58
2018-01-27T03:42:32.246Z,18.85
2018-01-27T03:43:03.883Z,19.42
2018-01-27T03:43:35.514Z,23.77
2018-01-27T03:44:07.143Z,20.62
2018-01-27T03:44:38.820Z,21.70
2018-01-27T03:45:10.401Z,22.13
2018-01-27T03:45:42.012Z,18.87
2018-01-27T03:46:13.612Z,18.95
2018-01-27T03:46:45.235Z,18.08
2018-01-27T03:47:16.851Z,20.80
2018-01-27T03:47:48.459Z,20.17
2018-01-27T03:48:20.102Z,19.48
2018-01-27T03:48:51.715Z,18.35
2018-01-27T03:49:23.348Z,17.58
2018-01-27T03:49:54.965Z,20.65
2018-01-27T03:50:26.581Z,23.12
2018-01-27T03:50:58.199Z,19.83
2018-01-27T03:51:29.840Z,19.80
2018-01-27T03:52:01.481Z,20.83
2018-01-27T03:52:33.101Z,26.23
2018-01-27T03:53:04.719Z,23.55
2018-01-27T03:53:36.322Z,22.35
2018-01-27T03:54:07.969Z,19.62
2018-01-27T03:54:39.605Z,25.50
2018-01-27T03:55:11.209Z,23.08
2018-01-27T03:55:42.838Z,25.02
2018-01-27T03:56:14.464Z,20.42
2018-01-27T03:56:46.103Z,27.00
2018-01-27T03:57:17.719Z,25.23
2018-01-27T03:57:49.335Z,23.73
2018-01-27T03:58:20.953Z,22.20
2018-01-27T03:58:52.611Z,27.08
2018-01-27T03:59:24.256Z,27.75
2018-01-27T03:59:55.899Z,26.40
2018-01-27T04:00:27.539Z,22.13
2018-01-27T04:00:59.215Z,22.83
2018-01-27T04:01:30.832Z,21.58
2018-01-27T04:02:02.478Z,21.60
2018-01-27T04:02:34.105Z,25.02
2018-01-27T04:03:05.749Z,16.35
2018-01-27T04:03:37.399Z,21.00
2018-01-27T04:04:09.012Z,23.17
2018-01-27T04:04:40.658Z,18.15
2018-01-27T04:05:12.291Z,19.27
2018-01-27T04:05:43.931Z,21.17
2018-01-27T04:06:15.562Z,17.30
2018-01-27T04:06:47.154Z,21.23
2018-01-27T04:07:18.823Z,21.60
2018-01-27T04:07:50.450Z,21.33
2018-01-27T04:08:22.085Z,22.25
2018-01-27T04:08:53.709Z,22.85
2018-01-27T04:09:25.336Z,17.75
2018-01-27T04:09:56.955Z,18.80
2018-01-27T04:10:28.572Z,22.60
2018-01-27T04:11:00.194Z,21.83
2018-01-27T04:11:31.806Z,22.33
2018-01-27T04:12:03.486Z,18.80
2018-01-27T04:12:35.130Z,23.85
2018-01-27T04:13:06.777Z,23.23
2018-01-27T04:13:38.386Z,21.17
2018-01-27T04:14:09.989Z,21.52
2018-01-27T04:14:41.606Z,20.85
2018-01-27T04:15:13.256Z,20.05
2018-01-27T04:15:44.888Z,25.12
2018-01-27T04:16:16.502Z,20.45
2018-01-27T04:16:48.135Z,20.48
2018-01-27T04:17:19.760Z,18.92
2018-01-27T04:17:51.395Z,17.77
2018-01-27T04:18:23.005Z,21.75
2018-01-27T04:18:54.618Z,21.23
2018-01-27T04:19:26.245Z,21.00
2018-01-27T04:19:57.889Z,22.62
2018-01-27T04:20:29.494Z,23.10
2018-01-27T04:21:01.126Z,19.58
2018-01-27T04:21:32.735Z,21.23
2018-01-27T04:22:04.379Z,19.02
2018-01-27T04:22:36.003Z,21.25
2018-01-27T04:23:07.653Z,20.55
2018-01-27T04:23:39.276Z,21.02
2018-01-27T04:24:10.900Z,25.17
2018-01-27T04:24:42.522Z,20.40
2018-01-27T04:25:14.149Z,19.90
2018-01-27T04:25:45.761Z,20.77
2018-01-27T04:26:17.380Z,17.20
2018-01-27T04:26:49.001Z,24.77
2018-01-27T04:27:20.706Z,20.75
2018-01-27T04:27:52.320Z,18.33
2018-01-27T04:28:23.943Z,18.42
2018-01-27T04:28:55.574Z,20.58
2018-01-27T04:29:27.238Z,19.45
2018-01-27T04:29:58.873Z,23.85
2018-01-27T04:30:30.499Z,19.00
2018-01-27T04:31:02.193Z,21.00
2018-01-27T04:31:33.804Z,19.40
2018-01-27T04:32:05.400Z,23.35
2018-01-27T04:32:37.012Z,19.92
2018-01-27T04:33:08.619Z,18.87
2018-01-27T04:33:40.272Z,21.90
2018-01-27T04:34:11.951Z,17.58
2018-01-27T04:34:43.524Z,23.60
2018-01-27T04:35:15.161Z,22.17
2018-01-27T04:35:46.793Z,21.65
2018-01-27T04:36:18.445Z,23.23
2018-01-27T04:36:50.077Z,20.62
2018-01-27T04:37:21.700Z,22.95
2018-01-27T04:37:53.312Z,20.75
2018-01-27T04:38:24.943Z,22.65
2018-01-27T04:38:56.572Z,25.33
2018-01-27T04:39:28.174Z,20.42
2018-01-27T04:39:59.785Z,19.15
2018-01-27T04:40:31.415Z,19.20
2018-01-27T04:41:03.025Z,22.00
2018-01-27T04:41:34.653Z,25.00
2018-01-27T04:42:07.195Z,24.42
2018-01-27T04:42:38.815Z,20.05
2018-01-27T04:43:10.448Z,19.55
2018-01-27T04:43:42.086Z,24.35
2018-01-27T04:44:13.735Z,23.50
2018-01-27T04:44:45.353Z,20.77
2018-01-27T04:45:17.004Z,20.10
2018-01-27T04:45:48.635Z,20.70
2018-01-27T04:46:20.248Z,18.87
2018-01-27T04:46:51.872Z,18.08
2018-01-27T04:47:23.527Z,20.45
2018-01-27T04:47:55.145Z,20.45
2018-01-27T04:48:26.762Z,22.60
2018-01-27T04:48:58.362Z,22.23
2018-01-27T04:49:30.035Z,21.17
2018-01-27T04:50:01.657Z,25.15
2018-01-27T04:50:33.279Z,27.20
2018-01-27T04:51:04.918Z,24.35
2018-01-27T04:51:36.538Z,23.27
2018-01-27T04:52:08.150Z,22.65
2018-01-27T04:52:39.771Z,23.62
2018-01-27T04:53:11.433Z,25.50
2018-01-27T04:53:43.046Z,22.25
2018-01-27T04:54:14.678Z,24.12
2018-01-27T04:54:46.291Z,25.42
2018-01-27T04:55:17.913Z,21.17
2018-01-27T04:55:49.554Z,23.92
2018-01-27T04:56:21.180Z,21.42
2018-01-27T04:56:52.803Z,23.05
2018-01-27T04:57:24.451Z,19.90
2018-01-27T04:57:56.073Z,24.15
2018-01-27T04:58:27.692Z,19.10
2018-01-27T04:58:59.312Z,24.70
2018-01-27T04:59:30.923Z,23.20
2018-01-27T05:00:02.625Z,24.87
2018-01-27T05:00:34.255Z,23.42
2018-01-27T05:01:05.849Z,19.90
2018-01-27T05:01:37.472Z,20.73
2018-01-27T05:02:09.103Z,20.98
2018-01-27T05:02:40.738Z,19.08
2018-01-27T05:03:12.387Z,21.15
2018-01-27T05:03:44.012Z,23.52
2018-01-27T05:04:15.640Z,21.83
2018-01-27T05:04:47.276Z,22.25
2018-01-27T05:05:18.917Z,19.60
2018-01-27T05:05:50.538Z,23.05
2018-01-27T05:06:22.154Z,19.37
2018-01-27T05:06:53.818Z,20.40
2018-01-27T05:07:25.442Z,21.52
2018-01-27T05:07:57.092Z,20.12
2018-01-27T05:08:28.704Z,20.08
2018-01-27T05:09:00.329Z,22.55
2018-01-27T05:09:31.956Z,22.90
2018-01-27T05:10:03.597Z,18.67
2018-01-27T05:10:35.227Z,15.63
2018-01-27T05:11:06.841Z,23.12
2018-01-27T05:11:38.441Z,21.92
2018-01-27T05:12:10.059Z,22.52
2018-01-27T05:12:41.699Z,21.33
2018-01-27T05:13:13.329Z,19.10
2018-01-27T05:13:44.954Z,17.73
2018-01-27T05:14:16.569Z,21.37
2018-01-27T05:14:48.177Z,21.02
2018-01-27T05:15:19.775Z,23.20
2018-01-27T05:15:51.426Z,20.35
2018-01-27T05:16:23.032Z,22.23
2018-01-27T05:16:54.617Z,22.30
2018-01-27T05:17:26.264Z,20.80
2018-01-27T05:17:57.878Z,19.52
2018-01-27T05:18:29.482Z,25.12
2018-01-27T05:19:01.116Z,20.83
2018-01-27T05:19:32.815Z,20.27
2018-01-27T05:20:04.427Z,21.33
2018-01-27T05:20:36.049Z,22.08
2018-01-27T05:21:07.698Z,18.05
2018-01-27T05:21:39.320Z,21.83
2018-01-27T05:22:10.951Z,19.83
2018-01-27T05:22:42.572Z,21.50
2018-01-27T05:23:14.200Z,25.23
2018-01-27T05:23:45.809Z,21.15
2018-01-27T05:24:17.418Z,22.70
2018-01-27T05:24:49.037Z,23.40
2018-01-27T05:25:20.666Z,24.90
2018-01-27T05:25:52.281Z,23.00
2018-01-27T05:26:23.910Z,17.87
2018-01-27T05:26:55.532Z,22.10
2018-01-27T05:27:27.148Z,21.55
2018-01-27T05:27:58.758Z,22.55
2018-01-27T05:28:30.356Z,23.70
2018-01-27T05:29:01.981Z,18.48
2018-01-27T05:29:33.598Z,23.20
2018-01-27T05:30:05.227Z,26.48
2018-01-27T05:30:36.901Z,21.62
2018-01-27T05:31:08.514Z,21.92
2018-01-27T05:31:40.144Z,20.62
2018-01-27T05:32:11.756Z,22.10
2018-01-27T05:32:43.424Z,22.52
2018-01-27T05:33:15.044Z,19.35
2018-01-27T05:33:46.686Z,21.05
2018-01-27T05:34:18.316Z,24.08
2018-01-27T05:34:49.927Z,26.62
2018-01-27T05:35:21.524Z,20.10
2018-01-27T05:35:53.140Z,17.90
2018-01-27T05:36:24.764Z,26.55
2018-01-27T05:36:56.380Z,24.23
2018-01-27T05:37:27.996Z,20.83
2018-01-27T05:37:59.604Z,19.77
2018-01-27T05:38:31.214Z,21.35
2018-01-27T05:39:02.900Z,20.80
2018-01-27T05:39:34.540Z,21.83
2018-01-27T05:40:06.149Z,23.65
2018-01-27T05:40:37.764Z,20.73
2018-01-27T05:41:09.407Z,20.98
2018-01-27T05:41:41.034Z,22.25
2018-01-27T05:42:12.668Z,21.83
2018-01-27T05:42:44.323Z,20.95
2018-01-27T05:43:15.970Z,19.48
2018-01-27T05:43:47.564Z,22.55
2018-01-27T05:44:19.178Z,22.62
2018-01-27T05:44:50.789Z,24.55
2018-01-27T05:45:22.396Z,24.65
2018-01-27T05:45:54.028Z,23.42
2018-01-27T05:46:25.646Z,24.87
2018-01-27T05:46:57.253Z,26.00
2018-01-27T05:47:28.864Z,25.17
2018-01-27T05:48:00.492Z,31.20
2018-01-27T05:48:32.103Z,29.83
2018-01-27T05:49:03.733Z,26.55
2018-01-27T05:49:35.406Z,26.58
2018-01-27T05:50:07.034Z,30.12
2018-01-27T05:50:38.664Z,29.08
2018-01-27T05:51:10.267Z,30.58
2018-01-27T05:51:41.915Z,32.58
2018-01-27T05:52:13.539Z,36.55
2018-01-27T05:52:45.200Z,34.50
2018-01-27T05:53:16.812Z,40.58
2018-01-27T05:53:48.456Z,32.78
2018-01-27T05:54:20.078Z,43.83
2018-01-27T05:54:51.702Z,37.03
2018-01-27T05:55:23.376Z,39.95
2018-01-27T05:55:55.000Z,42.08
2018-01-27T05:56:26.610Z,40.47
2018-01-27T05:56:58.228Z,39.05
2018-01-27T05:57:29.872Z,39.38
2018-01-27T05:58:01.496Z,46.70
2018-01-27T05:58:33.174Z,38.70
2018-01-27T05:59:04.800Z,39.95
2018-01-27T05:59:36.394Z,45.20
2018-01-27T06:00:08.050Z,47.88
2018-01-27T06:00:39.722Z,44.20
2018-01-27T06:01:11.324Z,45.30
2018-01-27T06:01:42.953Z,45.40
2018-01-27T06:02:14.581Z,47.65
2018-01-27T06:02:46.194Z,49.60
2018-01-27T06:03:17.816Z,48.67
2018-01-27T06:03:49.433Z,42.78
2018-01-27T06:04:21.048Z,44.75
2018-01-27T06:04:52.652Z,48.33
2018-01-27T06:05:24.264Z,42.65
2018-01-27T06:05:55.884Z,51.75
2018-01-27T06:06:27.524Z,45.97
2018-01-27T06:06:59.141Z,44.97
2018-01-27T06:07:30.768Z,45.25
2018-01-27T06:08:02.374Z,45.35
2018-01-27T06:08:34.027Z,41.97
2018-01-27T06:09:05.678Z,49.72
2018-01-27T06:09:37.302Z,54.72
2018-01-27T06:10:08.916Z,47.13
2018-01-27T06:10:40.548Z,43.28
2018-01-27T06:11:12.192Z,48.80
2018-01-27T06:11:43.850Z,49.60
2018-01-27T06:12:15.533Z,44.80
2018-01-27T06:12:47.151Z,43.22
2018-01-27T06:13:18.780Z,47.50
2018-01-27T06:13:50.444Z,48.45
2018-01-27T06:14:22.092Z,43.95
2018-01-27T06:14:53.713Z,47.25
2018-01-27T06:15:25.360Z,46.70
2018-01-27T06:15:56.998Z,44.55
2018-01-27T06:16:28.624Z,45.65
2018-01-27T06:17:00.230Z,40.47
2018-01-27T06:17:31.861Z,43.53
2018-01-27T06:18:03.527Z,47.33
2018-01-27T06:18:35.142Z,44.80
2018-01-27T06:19:06.816Z,44.38
2018-01-27T06:19:38.502Z,43.33
2018-01-27T06:20:10.110Z,43.10
2018-01-27T06:20:41.768Z,49.17
2018-01-27T06:21:13.416Z,43.63
2018-01-27T06:21:45.081Z,44.53
2018-01-27T06:22:16.724Z,44.53
2018-01-27T06:22:48.418Z,39.97
2018-01-27T06:23:20.074Z,47.08
2018-01-27T06:23:51.720Z,47.62
2018-01-27T06:24:23.396Z,42.58
2018-01-27T06:24:55.027Z,41.75
2018-01-27T06:25:26.644Z,41.22
2018-01-27T06:25:58.250Z,46.40
2018-01-27T06:26:29.882Z,48.13
2018-01-27T06:27:01.518Z,50.55
2018-01-27T06:27:33.182Z,47.40
2018-01-27T06:28:04.800Z,51.85
2018-01-27T06:28:36.418Z,54.60
2018-01-27T06:29:08.024Z,57.62
2018-01-27T06:29:39.648Z,63.03
2018-01-27T06:30:11.278Z,55.75
2018-01-27T06:30:42.903Z,58.87
2018-01-27T06:31:14.526Z,55.08
2018-01-27T06:31:46.154Z,58.90
2018-01-27T06:32:17.784Z,52.08
2018-01-27T06:32:49.400Z,53.50
2018-01-27T06:33:21.046Z,48.92
2018-01-27T06:33:52.642Z,54.10
2018-01-27T06:34:24.276Z,50.67
2018-01-27T06:34:55.926Z,57.67
2018-01-27T06:35:27.544Z,54.17
2018-01-27T06:35:59.193Z,54.33
2018-01-27T06:36:30.792Z,57.78
2018-01-27T06:37:02.397Z,66.25
2018-01-27T06:37:34.000Z,64.70
2018-01-27T06:38:05.634Z,60.08
2018-01-27T06:38:37.294Z,60.38
2018-01-27T06:39:08.927Z,55.12
2018-01-27T06:39:40.550Z,65.18
2018-01-27T06:40:12.190Z,54.97
2018-01-27T06:40:43.815Z,62.33
2018-01-27T06:41:15.446Z,55.15
2018-01-27T06:41:47.068Z,61.85
2018-01-27T06:42:18.672Z,59.90
2018-01-27T06:42:50.278Z,64.43
2018-01-27T06:43:21.928Z,79.50
2018-01-27T06:43:53.550Z,68.28
2018-01-27T06:44:25.164Z,62.05
2018-01-27T06:44:56.840Z,66.97
2018-01-27T06:45:28.500Z,60.97
2018-01-27T06:46:00.122Z,69.68
2018-01-27T06:46:31.743Z,61.80
2018-01-27T06:47:03.422Z,63.50
2018-01-27T06:47:35.034Z,73.75
2018-01-27T06:48:06.652Z,73.72
2018-01-27T06:48:38.276Z,67.10
2018-01-27T06:49:09.888Z,67.40